NCAR-RAP Real-Time Weather Data

Output produced by METARs form (10 April 2020  07:26 UTC)
found at http://weather.rap.ucar.edu/surface/
 
KVCT 100651Z AUTO 02008KT 10SM CLR 22/19 A2987 RMK AO2 SLP113 T02170189
KVCT 100551Z AUTO 04011KT 10SM CLR 21/19 A2986 RMK AO2 SLP110 60023 T02110189 10306 20211 403280211 58033
KVCT 100451Z AUTO 04008KT 10SM FEW075 FEW110 21/18 A2989 RMK AO2 WSHFT 0408 RAE42 SLP120 P0007 T02110183
KVCT 100428Z AUTO 08011KT 9SM -RA FEW110 21/18 A2989 RMK AO2 WSHFT 0408 LTG DSNT NE AND E PRESFR P0006 T02110183
KVCT 100413Z AUTO 04012G18KT 7SM VCTS RA BKN110 21/18 A2994 RMK AO2 LTG DSNT NE AND SE PRESFR P0004 T02110183
KVCT 100351Z AUTO 34012G21KT 7SM RA BKN110 21/18 A2999 RMK AO2 LTG DSNT SW-N TSB19E34 SLP152 P0016 T02110183
KVCT 100340Z AUTO 33014KT 7SM -RA BKN110 21/18 A3000 RMK AO2 LTG DSNT SW-N TSB19E34 P0014 T02110183
KVCT 100325Z AUTO 32010KT 5SM TSRA BKN100 BKN120 22/18 A2998 RMK AO2 LTG DSNT SW-N TSB19 P0009 T02170183
KVCT 100251Z AUTO 35008KT 7SM VCTS RA BKN049 BKN060 BKN110 23/18 A2996 RMK AO2 LTG DSNT SW-NW RAB39 SLP143 P0000 60000 T02280183 53071
KVCT 100151Z 04008KT 10SM BKN044 25/18 A2987 RMK AO2 LTG DSNT NW SLP112 T02500183
KVCT 100051Z 02011KT 10SM OVC034 26/18 A2981 RMK AO2 PRESRR SLP092 T02560183
KVCT 092351Z 11004KT 7SM CLR 31/23 A2975 RMK AO2 SLP072 T03110233 10328 20289 58008
KVCT 092251Z 19003KT 8SM CLR 32/22 A2976 RMK AO2 SLP077 T03220222
KVCT 092151Z 20006KT 8SM CLR 33/23 A2977 RMK AO2 SLP078 T03280228
KVCT 092051Z 18006KT 8SM CLR 32/23 A2977 RMK AO2 SLP081 T03220228 56031
KVCT 091951Z VRB03KT 8SM BKN090 31/23 A2981 RMK AO2 SLP091 T03110228
KVCT 091851Z 22003KT 7SM SCT018 30/23 A2984 RMK AO2 SLP101 T03000228
KVCT 091751Z COR 00000KT 6SM HZ SCT018 29/23 A2987 RMK AO2 SLP112 T02890228 10294 20239 58006
KVCT 091651Z COR 16004KT 6SM HZ SCT008 28/23 A2989 RMK AO2 SLP120 T02780228
KVCT 091551Z 20003KT 6SM HZ SCT008 27/22 A2990 RMK AO2 SLP122 T02720222
KVCT 091451Z 17003KT 4SM HZ SCT008 26/22 A2989 RMK AO2 SLP119 T02610222 51002
KVCT 091443Z 16003KT 4SM HZ SCT006 26/22 A2989 RMK AO2 T02610222
KVCT 091351Z 00000KT 3SM BR OVC006 25/23 A2989 RMK AO2 SLP118 T02500228
KVCT 091251Z 00000KT 2SM BR OVC007 24/22 A2988 RMK AO2 SLP117 T02390222
KVCT 091237Z 00000KT 1 3/4SM BR OVC006 24/22 A2988 RMK AO2 T02390217
KVCT 091225Z 00000KT 2SM HZ BKN006 24/21 A2987 RMK AO2 T02390211
KVCT 091203Z 00000KT 4SM HZ OVC007 24/22 A2987 RMK AO2 T02440217 $
KVCT 091151Z AUTO 22003KT 5SM HZ OVC007 24/22 A2987 RMK AO2 SLP111 T02440217 10250 20239 53006 $
KVCT 091051Z AUTO 00000KT 4SM HZ BKN008 24/21 A2985 RMK AO2 SLP108 T02390211 $
KVCT 091047Z AUTO 00000KT 4SM HZ BKN008 24/21 A2985 RMK AO2 $
KVCT 091024Z AUTO 00000KT 6SM HZ SCT008 24/22 A2985 RMK AO2 T02440217 $
KVCT 090951Z AUTO 22005KT 6SM HZ OVC007 25/22 A2985 RMK AO2 SLP105 T02500222 $
KVCT 090851Z AUTO 20007KT 5SM HZ OVC006 25/22 A2985 RMK AO2 SLP106 T02500222 56013 $